首页
METAR-TAF:

METAR-TAF

机场 :

Rocky Mount-Wilson Regional Airport

Rocky Mount, 北卡罗来纳州, 美国

纬度: 35-51-18N, 经度: 077-53-35W, 海拔: 49米

当前天气观测

该预报发布于24分钟前的16:53 UTC
风速8节,风向西转西南,在南转西南西之间变化
温度 10°C
湿度 57%
气压 1022 hPa
能見度: 16.1公里
天空无云

METAR: KRWI 161653Z AUTO 24008KT 210V280 10SM CLR 10/02 A3019 RMK AO2 SLP222 T01000022

时间: 12:17 (17:17 UTC)

预报

该预报发布于5小时和43分钟前的11:34 UTC
预报有效从16日的 12点(UTC)到 17日的 12点(UTC)
风速3节,风向多变
能見度: 8.0公里
天空无云
轻雾
短暂存在
从 16日的 12点(UTC)到 16日的 13点(UTC)
能見度: 1.6公里
轻雾
从 16日的 1400点(UTC)
风速4节,风向多变
能見度: 10公里
少量云层高于25000英尺
从 17日的 0600点(UTC)
风速3节,风向东北
能見度: 10公里
多云层高于25000英尺

TAF: KRWI 161134Z 1612/1712 VRB03KT 5SM BR SKC TEMPO 1612/1613 1SM BR FM161400 VRB04KT P6SM FEW250 FM170600 04003KT P6SM BKN250

超过4000个机场的气象观测和天气预报(METAR&TAF报告)。

可查询的气象台以黄色和红色小点在地图上表示。

将鼠标移到小点上方,可查看气象台名称。

然后点击查看天气观测和预报。

如需切换地图:点击带黑十字的绿色按钮放大地图;点击带横线的绿色按钮缩小地图;或者点击绿色箭头查看邻近地区的地图。


METAR-TAF: